sensor_id;sensor_type;location;lat;lon;timestamp;P1;durP1;ratioP1;P2;durP2;ratioP2
5682;SDS011;2864;49.220;8.654;2022-08-19T00:01:56;17.80;;;15.00;;
5682;SDS011;2864;49.220;8.654;2022-08-19T00:04:25;21.20;;;16.10;;
5682;SDS011;2864;49.220;8.654;2022-08-19T00:06:53;19.27;;;15.77;;
5682;SDS011;2864;49.220;8.654;2022-08-19T00:09:20;21.33;;;15.67;;
5682;SDS011;2864;49.220;8.654;2022-08-19T00:11:46;17.67;;;15.73;;
5682;SDS011;2864;49.220;8.654;2022-08-19T00:14:13;19.83;;;16.17;;
5682;SDS011;2864;49.220;8.654;2022-08-19T00:16:42;18.83;;;14.90;;
5682;SDS011;2864;49.220;8.654;2022-08-19T00:19:10;19.20;;;15.93;;
5682;SDS011;2864;49.220;8.654;2022-08-19T00:21:36;17.73;;;15.83;;
5682;SDS011;2864;49.220;8.654;2022-08-19T00:24:08;20.67;;;15.90;;
5682;SDS011;2864;49.220;8.654;2022-08-19T00:26:35;20.63;;;17.13;;
5682;SDS011;2864;49.220;8.654;2022-08-19T00:29:02;18.73;;;16.17;;
5682;SDS011;2864;49.220;8.654;2022-08-19T00:31:29;20.00;;;16.67;;
5682;SDS011;2864;49.220;8.654;2022-08-19T00:33:56;20.50;;;16.63;;
5682;SDS011;2864;49.220;8.654;2022-08-19T00:36:22;20.30;;;16.67;;
5682;SDS011;2864;49.220;8.654;2022-08-19T00:38:48;20.73;;;17.03;;
5682;SDS011;2864;49.220;8.654;2022-08-19T00:41:14;19.10;;;17.00;;
5682;SDS011;2864;49.220;8.654;2022-08-19T00:43:55;19.67;;;16.53;;
5682;SDS011;2864;49.220;8.654;2022-08-19T00:46:26;21.87;;;16.77;;
5682;SDS011;2864;49.220;8.654;2022-08-19T00:48:52;18.53;;;15.83;;
5682;SDS011;2864;49.220;8.654;2022-08-19T00:51:19;20.57;;;17.30;;
5682;SDS011;2864;49.220;8.654;2022-08-19T00:53:45;19.47;;;17.30;;
5682;SDS011;2864;49.220;8.654;2022-08-19T00:56:10;22.50;;;17.70;;
5682;SDS011;2864;49.220;8.654;2022-08-19T00:58:36;19.33;;;17.23;;
5682;SDS011;2864;49.220;8.654;2022-08-19T01:01:02;21.50;;;17.47;;
5682;SDS011;2864;49.220;8.654;2022-08-19T01:03:29;23.63;;;18.90;;
5682;SDS011;2864;49.220;8.654;2022-08-19T01:05:55;19.23;;;17.13;;
5682;SDS011;2864;49.220;8.654;2022-08-19T01:08:21;22.77;;;18.27;;
5682;SDS011;2864;49.220;8.654;2022-08-19T01:10:55;20.20;;;17.80;;
5682;SDS011;2864;49.220;8.654;2022-08-19T01:13:23;20.80;;;17.90;;
5682;SDS011;2864;49.220;8.654;2022-08-19T01:15:56;20.93;;;18.73;;
5682;SDS011;2864;49.220;8.654;2022-08-19T01:18:25;20.23;;;18.13;;
5682;SDS011;2864;49.220;8.654;2022-08-19T01:20:53;21.07;;;18.83;;
5682;SDS011;2864;49.220;8.654;2022-08-19T01:23:20;19.67;;;17.60;;
5682;SDS011;2864;49.220;8.654;2022-08-19T01:25:48;22.80;;;18.63;;
5682;SDS011;2864;49.220;8.654;2022-08-19T01:28:20;20.70;;;18.60;;
5682;SDS011;2864;49.220;8.654;2022-08-19T01:30:50;20.57;;;18.30;;
5682;SDS011;2864;49.220;8.654;2022-08-19T01:33:16;23.00;;;18.90;;
5682;SDS011;2864;49.220;8.654;2022-08-19T01:35:44;22.93;;;19.27;;
5682;SDS011;2864;49.220;8.654;2022-08-19T01:38:18;22.53;;;19.07;;
5682;SDS011;2864;49.220;8.654;2022-08-19T01:40:48;19.97;;;17.83;;
5682;SDS011;2864;49.220;8.654;2022-08-19T01:43:15;24.17;;;19.37;;
5682;SDS011;2864;49.220;8.654;2022-08-19T01:45:40;21.67;;;18.63;;
5682;SDS011;2864;49.220;8.654;2022-08-19T01:48:07;21.23;;;18.03;;
5682;SDS011;2864;49.220;8.654;2022-08-19T01:50:34;20.17;;;18.07;;
5682;SDS011;2864;49.220;8.654;2022-08-19T01:53:00;21.50;;;18.10;;
5682;SDS011;2864;49.220;8.654;2022-08-19T01:55:28;19.80;;;17.77;;
5682;SDS011;2864;49.220;8.654;2022-08-19T01:57:55;20.40;;;18.07;;
5682;SDS011;2864;49.220;8.654;2022-08-19T02:00:24;21.27;;;18.67;;
5682;SDS011;2864;49.220;8.654;2022-08-19T02:02:52;20.10;;;18.00;;
5682;SDS011;2864;49.220;8.654;2022-08-19T02:05:19;23.20;;;18.60;;
5682;SDS011;2864;49.220;8.654;2022-08-19T02:07:46;21.00;;;18.17;;
5682;SDS011;2864;49.220;8.654;2022-08-19T02:10:13;20.87;;;18.60;;
5682;SDS011;2864;49.220;8.654;2022-08-19T02:12:42;19.67;;;17.60;;
5682;SDS011;2864;49.220;8.654;2022-08-19T02:15:09;20.47;;;18.27;;
5682;SDS011;2864;49.220;8.654;2022-08-19T02:17:35;21.03;;;18.80;;
5682;SDS011;2864;49.220;8.654;2022-08-19T02:20:04;21.33;;;19.07;;
5682;SDS011;2864;49.220;8.654;2022-08-19T02:22:32;21.53;;;18.00;;
5682;SDS011;2864;49.220;8.654;2022-08-19T02:24:58;20.90;;;18.70;;
5682;SDS011;2864;49.220;8.654;2022-08-19T02:27:23;22.57;;;20.27;;
5682;SDS011;2864;49.220;8.654;2022-08-19T02:29:50;22.33;;;20.13;;
5682;SDS011;2864;49.220;8.654;2022-08-19T02:32:17;23.23;;;20.10;;
5682;SDS011;2864;49.220;8.654;2022-08-19T02:34:44;23.03;;;20.10;;
5682;SDS011;2864;49.220;8.654;2022-08-19T02:37:11;21.40;;;19.17;;
5682;SDS011;2864;49.220;8.654;2022-08-19T02:39:56;22.23;;;19.20;;
5682;SDS011;2864;49.220;8.654;2022-08-19T02:42:22;21.90;;;19.57;;
5682;SDS011;2864;49.220;8.654;2022-08-19T02:44:48;23.13;;;20.13;;
5682;SDS011;2864;49.220;8.654;2022-08-19T02:47:14;21.63;;;19.43;;
5682;SDS011;2864;49.220;8.654;2022-08-19T02:49:40;22.17;;;19.87;;
5682;SDS011;2864;49.220;8.654;2022-08-19T02:52:06;21.40;;;19.23;;
5682;SDS011;2864;49.220;8.654;2022-08-19T02:54:32;23.03;;;20.60;;
5682;SDS011;2864;49.220;8.654;2022-08-19T02:56:57;22.00;;;19.60;;
5682;SDS011;2864;49.220;8.654;2022-08-19T02:59:23;23.20;;;20.83;;
5682;SDS011;2864;49.220;8.654;2022-08-19T03:01:49;23.97;;;20.73;;
5682;SDS011;2864;49.220;8.654;2022-08-19T03:04:15;24.73;;;22.23;;
5682;SDS011;2864;49.220;8.654;2022-08-19T03:06:42;22.27;;;20.03;;
5682;SDS011;2864;49.220;8.654;2022-08-19T03:09:09;24.20;;;21.70;;
5682;SDS011;2864;49.220;8.654;2022-08-19T03:11:35;24.57;;;22.03;;
5682;SDS011;2864;49.220;8.654;2022-08-19T03:14:01;23.13;;;20.77;;
5682;SDS011;2864;49.220;8.654;2022-08-19T03:16:28;24.50;;;21.70;;
5682;SDS011;2864;49.220;8.654;2022-08-19T03:18:55;25.57;;;22.33;;
5682;SDS011;2864;49.220;8.654;2022-08-19T03:21:25;25.63;;;22.90;;
5682;SDS011;2864;49.220;8.654;2022-08-19T03:23:56;25.00;;;21.53;;
5682;SDS011;2864;49.220;8.654;2022-08-19T03:26:23;26.93;;;23.43;;
5682;SDS011;2864;49.220;8.654;2022-08-19T03:28:49;24.33;;;21.83;;
5682;SDS011;2864;49.220;8.654;2022-08-19T03:31:16;24.73;;;22.20;;
5682;SDS011;2864;49.220;8.654;2022-08-19T03:33:44;26.77;;;22.30;;
5682;SDS011;2864;49.220;8.654;2022-08-19T03:36:11;26.00;;;23.20;;
5682;SDS011;2864;49.220;8.654;2022-08-19T03:38:42;24.27;;;21.83;;
5682;SDS011;2864;49.220;8.654;2022-08-19T03:41:11;24.83;;;22.30;;
5682;SDS011;2864;49.220;8.654;2022-08-19T03:43:40;24.03;;;21.47;;
5682;SDS011;2864;49.220;8.654;2022-08-19T03:46:07;23.27;;;20.87;;
5682;SDS011;2864;49.220;8.654;2022-08-19T03:48:36;25.30;;;22.73;;
5682;SDS011;2864;49.220;8.654;2022-08-19T03:51:02;24.87;;;22.27;;
5682;SDS011;2864;49.220;8.654;2022-08-19T03:53:28;24.27;;;21.73;;
5682;SDS011;2864;49.220;8.654;2022-08-19T03:55:54;24.17;;;21.03;;
5682;SDS011;2864;49.220;8.654;2022-08-19T03:58:21;25.57;;;22.73;;
5682;SDS011;2864;49.220;8.654;2022-08-19T04:00:47;26.03;;;23.23;;
5682;SDS011;2864;49.220;8.654;2022-08-19T04:03:13;25.53;;;22.87;;
5682;SDS011;2864;49.220;8.654;2022-08-19T04:05:39;25.37;;;22.67;;
5682;SDS011;2864;49.220;8.654;2022-08-19T04:08:04;27.10;;;24.10;;
5682;SDS011;2864;49.220;8.654;2022-08-19T04:10:30;26.17;;;23.47;;
5682;SDS011;2864;49.220;8.654;2022-08-19T04:13:00;27.80;;;24.60;;
5682;SDS011;2864;49.220;8.654;2022-08-19T04:15:25;26.27;;;22.93;;
5682;SDS011;2864;49.220;8.654;2022-08-19T04:17:53;27.33;;;23.70;;
5682;SDS011;2864;49.220;8.654;2022-08-19T04:20:19;27.77;;;23.27;;
5682;SDS011;2864;49.220;8.654;2022-08-19T04:22:45;26.23;;;23.53;;
5682;SDS011;2864;49.220;8.654;2022-08-19T04:25:11;26.83;;;23.93;;
5682;SDS011;2864;49.220;8.654;2022-08-19T04:27:36;27.40;;;24.40;;
5682;SDS011;2864;49.220;8.654;2022-08-19T04:30:02;28.43;;;25.43;;
5682;SDS011;2864;49.220;8.654;2022-08-19T04:32:28;27.63;;;24.77;;
5682;SDS011;2864;49.220;8.654;2022-08-19T04:34:56;28.63;;;25.70;;
5682;SDS011;2864;49.220;8.654;2022-08-19T04:37:23;28.83;;;25.00;;
5682;SDS011;2864;49.220;8.654;2022-08-19T04:39:51;26.87;;;24.00;;
5682;SDS011;2864;49.220;8.654;2022-08-19T04:42:35;28.43;;;24.20;;
5682;SDS011;2864;49.220;8.654;2022-08-19T04:45:11;27.93;;;25.03;;
5682;SDS011;2864;49.220;8.654;2022-08-19T04:47:39;28.13;;;24.47;;
5682;SDS011;2864;49.220;8.654;2022-08-19T04:50:06;28.00;;;25.00;;
5682;SDS011;2864;49.220;8.654;2022-08-19T04:52:34;27.70;;;24.80;;
5682;SDS011;2864;49.220;8.654;2022-08-19T04:54:59;32.07;;;23.73;;
5682;SDS011;2864;49.220;8.654;2022-08-19T04:57:25;29.23;;;24.37;;
5682;SDS011;2864;49.220;8.654;2022-08-19T04:59:55;26.13;;;23.43;;
5682;SDS011;2864;49.220;8.654;2022-08-19T05:02:21;26.47;;;23.67;;
5682;SDS011;2864;49.220;8.654;2022-08-19T05:04:49;27.07;;;24.17;;
5682;SDS011;2864;49.220;8.654;2022-08-19T05:07:15;30.00;;;23.67;;
5682;SDS011;2864;49.220;8.654;2022-08-19T05:09:41;26.80;;;23.73;;
5682;SDS011;2864;49.220;8.654;2022-08-19T05:12:07;26.03;;;23.23;;
5682;SDS011;2864;49.220;8.654;2022-08-19T05:14:33;25.37;;;22.50;;
5682;SDS011;2864;49.220;8.654;2022-08-19T05:17:00;25.23;;;21.63;;
5682;SDS011;2864;49.220;8.654;2022-08-19T05:19:26;27.20;;;21.93;;
5682;SDS011;2864;49.220;8.654;2022-08-19T05:22:10;31.00;;;21.63;;
5682;SDS011;2864;49.220;8.654;2022-08-19T05:25:06;41.43;;;21.00;;
5682;SDS011;2864;49.220;8.654;2022-08-19T05:27:34;40.60;;;20.63;;
5682;SDS011;2864;49.220;8.654;2022-08-19T05:30:00;36.33;;;20.93;;
5682;SDS011;2864;49.220;8.654;2022-08-19T05:32:26;39.87;;;20.87;;
5682;SDS011;2864;49.220;8.654;2022-08-19T05:34:52;29.17;;;21.20;;
5682;SDS011;2864;49.220;8.654;2022-08-19T05:37:18;31.80;;;20.57;;
5682;SDS011;2864;49.220;8.654;2022-08-19T05:39:43;23.83;;;21.33;;
5682;SDS011;2864;49.220;8.654;2022-08-19T05:42:10;23.97;;;21.47;;
5682;SDS011;2864;49.220;8.654;2022-08-19T05:44:37;23.80;;;21.37;;
5682;SDS011;2864;49.220;8.654;2022-08-19T05:47:06;23.83;;;21.33;;
5682;SDS011;2864;49.220;8.654;2022-08-19T05:49:33;23.50;;;21.20;;
5682;SDS011;2864;49.220;8.654;2022-08-19T05:52:01;22.43;;;20.03;;
5682;SDS011;2864;49.220;8.654;2022-08-19T05:54:29;22.77;;;20.40;;
5682;SDS011;2864;49.220;8.654;2022-08-19T05:56:54;22.43;;;19.97;;
5682;SDS011;2864;49.220;8.654;2022-08-19T05:59:20;25.90;;;19.70;;
5682;SDS011;2864;49.220;8.654;2022-08-19T06:01:46;26.47;;;17.97;;
5682;SDS011;2864;49.220;8.654;2022-08-19T06:04:17;27.03;;;18.67;;
5682;SDS011;2864;49.220;8.654;2022-08-19T06:06:44;26.97;;;18.00;;
5682;SDS011;2864;49.220;8.654;2022-08-19T06:09:11;29.37;;;18.83;;
5682;SDS011;2864;49.220;8.654;2022-08-19T06:11:41;24.80;;;17.60;;
5682;SDS011;2864;49.220;8.654;2022-08-19T06:14:18;24.97;;;16.83;;
5682;SDS011;2864;49.220;8.654;2022-08-19T06:16:47;23.07;;;17.60;;
5682;SDS011;2864;49.220;8.654;2022-08-19T06:19:14;20.63;;;17.47;;
5682;SDS011;2864;49.220;8.654;2022-08-19T06:21:43;19.80;;;16.17;;
5682;SDS011;2864;49.220;8.654;2022-08-19T06:24:11;18.67;;;16.67;;
5682;SDS011;2864;49.220;8.654;2022-08-19T06:26:40;19.53;;;17.50;;
5682;SDS011;2864;49.220;8.654;2022-08-19T06:29:08;20.53;;;18.13;;
5682;SDS011;2864;49.220;8.654;2022-08-19T06:31:36;19.10;;;17.00;;
5682;SDS011;2864;49.220;8.654;2022-08-19T06:34:05;19.10;;;17.10;;
5682;SDS011;2864;49.220;8.654;2022-08-19T06:36:32;19.07;;;17.10;;
5682;SDS011;2864;49.220;8.654;2022-08-19T06:39:07;19.70;;;17.63;;
5682;SDS011;2864;49.220;8.654;2022-08-19T06:41:38;20.17;;;16.73;;
5682;SDS011;2864;49.220;8.654;2022-08-19T06:44:05;19.33;;;16.57;;
5682;SDS011;2864;49.220;8.654;2022-08-19T06:46:31;18.23;;;16.27;;
5682;SDS011;2864;49.220;8.654;2022-08-19T06:48:57;18.83;;;16.67;;
5682;SDS011;2864;49.220;8.654;2022-08-19T06:51:23;18.93;;;17.03;;
5682;SDS011;2864;49.220;8.654;2022-08-19T06:53:50;17.70;;;15.97;;
5682;SDS011;2864;49.220;8.654;2022-08-19T06:56:19;19.20;;;16.17;;
5682;SDS011;2864;49.220;8.654;2022-08-19T06:58:49;17.83;;;16.10;;
5682;SDS011;2864;49.220;8.654;2022-08-19T07:01:17;16.67;;;15.03;;
5682;SDS011;2864;49.220;8.654;2022-08-19T07:03:43;18.50;;;16.57;;
5682;SDS011;2864;49.220;8.654;2022-08-19T07:06:10;16.93;;;15.33;;
5682;SDS011;2864;49.220;8.654;2022-08-19T07:08:40;18.30;;;16.50;;
5682;SDS011;2864;49.220;8.654;2022-08-19T07:11:08;18.03;;;16.17;;
5682;SDS011;2864;49.220;8.654;2022-08-19T07:13:35;19.30;;;15.83;;
5682;SDS011;2864;49.220;8.654;2022-08-19T07:16:03;16.50;;;14.90;;
5682;SDS011;2864;49.220;8.654;2022-08-19T07:18:30;18.27;;;16.40;;
5682;SDS011;2864;49.220;8.654;2022-08-19T07:21:03;18.13;;;16.27;;
5682;SDS011;2864;49.220;8.654;2022-08-19T07:23:30;19.83;;;16.63;;
5682;SDS011;2864;49.220;8.654;2022-08-19T07:25:56;18.53;;;15.47;;
5682;SDS011;2864;49.220;8.654;2022-08-19T07:28:22;17.20;;;15.50;;
5682;SDS011;2864;49.220;8.654;2022-08-19T07:30:47;17.83;;;15.93;;
5682;SDS011;2864;49.220;8.654;2022-08-19T07:33:14;21.10;;;16.03;;
5682;SDS011;2864;49.220;8.654;2022-08-19T07:35:41;17.30;;;15.67;;
5682;SDS011;2864;49.220;8.654;2022-08-19T07:38:07;20.53;;;14.60;;
5682;SDS011;2864;49.220;8.654;2022-08-19T07:40:32;14.93;;;13.53;;
5682;SDS011;2864;49.220;8.654;2022-08-19T07:42:58;16.57;;;14.87;;
5682;SDS011;2864;49.220;8.654;2022-08-19T07:45:23;17.17;;;14.60;;
5682;SDS011;2864;49.220;8.654;2022-08-19T07:47:49;18.47;;;14.40;;
5682;SDS011;2864;49.220;8.654;2022-08-19T07:50:15;15.17;;;13.57;;
5682;SDS011;2864;49.220;8.654;2022-08-19T07:52:41;15.80;;;14.10;;
5682;SDS011;2864;49.220;8.654;2022-08-19T07:55:09;16.17;;;13.73;;
5682;SDS011;2864;49.220;8.654;2022-08-19T07:57:36;17.23;;;13.97;;
5682;SDS011;2864;49.220;8.654;2022-08-19T08:00:03;15.80;;;13.90;;
5682;SDS011;2864;49.220;8.654;2022-08-19T08:02:29;15.47;;;13.77;;
5682;SDS011;2864;49.220;8.654;2022-08-19T08:04:55;16.47;;;13.77;;
5682;SDS011;2864;49.220;8.654;2022-08-19T08:07:53;15.97;;;13.70;;
5682;SDS011;2864;49.220;8.654;2022-08-19T08:10:38;15.33;;;13.70;;
5682;SDS011;2864;49.220;8.654;2022-08-19T08:13:07;14.50;;;13.00;;
5682;SDS011;2864;49.220;8.654;2022-08-19T08:15:33;18.93;;;12.87;;
5682;SDS011;2864;49.220;8.654;2022-08-19T08:17:59;17.57;;;12.93;;
5682;SDS011;2864;49.220;8.654;2022-08-19T08:20:24;13.20;;;11.40;;
5682;SDS011;2864;49.220;8.654;2022-08-19T08:22:53;11.97;;;10.87;;
5682;SDS011;2864;49.220;8.654;2022-08-19T08:25:37;13.67;;;10.90;;
5682;SDS011;2864;49.220;8.654;2022-08-19T08:28:03;12.90;;;10.87;;
5682;SDS011;2864;49.220;8.654;2022-08-19T08:30:30;13.60;;;11.77;;
5682;SDS011;2864;49.220;8.654;2022-08-19T08:33:00;16.47;;;11.13;;
5682;SDS011;2864;49.220;8.654;2022-08-19T08:35:27;14.77;;;11.23;;
5682;SDS011;2864;49.220;8.654;2022-08-19T08:37:54;14.40;;;11.47;;
5682;SDS011;2864;49.220;8.654;2022-08-19T08:40:21;12.47;;;11.20;;
5682;SDS011;2864;49.220;8.654;2022-08-19T08:45:50;12.17;;;10.87;;
5682;SDS011;2864;49.220;8.654;2022-08-19T08:48:46;10.63;;;9.20;;
5682;SDS011;2864;49.220;8.654;2022-08-19T08:51:18;16.07;;;8.67;;
5682;SDS011;2864;49.220;8.654;2022-08-19T08:53:49;10.43;;;8.87;;
5682;SDS011;2864;49.220;8.654;2022-08-19T08:56:18;9.33;;;7.80;;
5682;SDS011;2864;49.220;8.654;2022-08-19T08:59:28;10.07;;;7.70;;
5682;SDS011;2864;49.220;8.654;2022-08-19T09:01:49;8.67;;;7.03;;
5682;SDS011;2864;49.220;8.654;2022-08-19T09:04:14;8.97;;;7.30;;
5682;SDS011;2864;49.220;8.654;2022-08-19T09:06:45;9.67;;;8.17;;
5682;SDS011;2864;49.220;8.654;2022-08-19T09:14:45;8.27;;;6.00;;
5682;SDS011;2864;49.220;8.654;2022-08-19T09:17:12;6.87;;;6.13;;
5682;SDS011;2864;49.220;8.654;2022-08-19T09:19:56;8.13;;;6.40;;
5682;SDS011;2864;49.220;8.654;2022-08-19T09:22:35;7.85;;;6.63;;
5682;SDS011;2864;49.220;8.654;2022-08-19T09:25:02;7.80;;;6.80;;
5682;SDS011;2864;49.220;8.654;2022-08-19T09:27:30;8.07;;;6.20;;
5682;SDS011;2864;49.220;8.654;2022-08-19T09:29:56;7.13;;;6.43;;
5682;SDS011;2864;49.220;8.654;2022-08-19T09:32:23;6.57;;;5.95;;
5682;SDS011;2864;49.220;8.654;2022-08-19T09:34:50;8.00;;;6.18;;
5682;SDS011;2864;49.220;8.654;2022-08-19T09:37:19;8.27;;;6.43;;
5682;SDS011;2864;49.220;8.654;2022-08-19T09:39:46;6.78;;;6.07;;
5682;SDS011;2864;49.220;8.654;2022-08-19T09:42:11;6.50;;;5.85;;
5682;SDS011;2864;49.220;8.654;2022-08-19T09:44:38;6.35;;;5.68;;
5682;SDS011;2864;49.220;8.654;2022-08-19T09:47:08;6.90;;;5.43;;
5682;SDS011;2864;49.220;8.654;2022-08-19T09:49:36;6.25;;;5.65;;
5682;SDS011;2864;49.220;8.654;2022-08-19T09:52:02;6.05;;;5.45;;
5682;SDS011;2864;49.220;8.654;2022-08-19T09:54:28;5.95;;;4.70;;
5682;SDS011;2864;49.220;8.654;2022-08-19T09:56:54;5.60;;;5.10;;
5682;SDS011;2864;49.220;8.654;2022-08-19T09:59:22;6.90;;;4.97;;
5682;SDS011;2864;49.220;8.654;2022-08-19T10:01:48;6.30;;;5.70;;
5682;SDS011;2864;49.220;8.654;2022-08-19T10:04:14;6.43;;;5.72;;
5682;SDS011;2864;49.220;8.654;2022-08-19T10:06:40;7.05;;;5.95;;
5682;SDS011;2864;49.220;8.654;2022-08-19T10:09:07;10.88;;;5.65;;
5682;SDS011;2864;49.220;8.654;2022-08-19T10:11:34;8.18;;;5.78;;
5682;SDS011;2864;49.220;8.654;2022-08-19T10:14:02;6.97;;;4.75;;
5682;SDS011;2864;49.220;8.654;2022-08-19T10:16:30;5.57;;;5.00;;
5682;SDS011;2864;49.220;8.654;2022-08-19T10:18:56;8.05;;;5.38;;
5682;SDS011;2864;49.220;8.654;2022-08-19T10:21:27;7.20;;;6.13;;
5682;SDS011;2864;49.220;8.654;2022-08-19T10:23:56;6.97;;;5.28;;
5682;SDS011;2864;49.220;8.654;2022-08-19T10:26:24;7.65;;;5.90;;
5682;SDS011;2864;49.220;8.654;2022-08-19T10:28:54;5.65;;;5.05;;
5682;SDS011;2864;49.220;8.654;2022-08-19T10:31:22;7.38;;;5.40;;
5682;SDS011;2864;49.220;8.654;2022-08-19T10:33:55;5.47;;;4.80;;
5682;SDS011;2864;49.220;8.654;2022-08-19T10:36:28;5.50;;;4.70;;
5682;SDS011;2864;49.220;8.654;2022-08-19T10:38:58;6.45;;;4.80;;
5682;SDS011;2864;49.220;8.654;2022-08-19T10:41:26;5.30;;;4.80;;
5682;SDS011;2864;49.220;8.654;2022-08-19T10:43:55;5.70;;;4.63;;
5682;SDS011;2864;49.220;8.654;2022-08-19T10:46:23;5.82;;;5.20;;
5682;SDS011;2864;49.220;8.654;2022-08-19T10:48:50;6.57;;;4.63;;
5682;SDS011;2864;49.220;8.654;2022-08-19T10:51:16;6.45;;;5.55;;
5682;SDS011;2864;49.220;8.654;2022-08-19T10:54:01;9.60;;;5.60;;
5682;SDS011;2864;49.220;8.654;2022-08-19T10:56:28;6.15;;;5.53;;
5682;SDS011;2864;49.220;8.654;2022-08-19T10:59:12;6.10;;;5.45;;
5682;SDS011;2864;49.220;8.654;2022-08-19T11:01:39;9.40;;;6.28;;
5682;SDS011;2864;49.220;8.654;2022-08-19T11:04:06;7.38;;;6.50;;
5682;SDS011;2864;49.220;8.654;2022-08-19T11:06:34;6.45;;;5.78;;
5682;SDS011;2864;49.220;8.654;2022-08-19T11:09:01;7.13;;;5.25;;
5682;SDS011;2864;49.220;8.654;2022-08-19T11:11:27;6.38;;;5.60;;
5682;SDS011;2864;49.220;8.654;2022-08-19T11:13:53;6.63;;;5.47;;
5682;SDS011;2864;49.220;8.654;2022-08-19T11:16:20;8.75;;;5.90;;
5682;SDS011;2864;49.220;8.654;2022-08-19T11:18:55;8.00;;;5.63;;
5682;SDS011;2864;49.220;8.654;2022-08-19T11:21:28;7.38;;;5.35;;
5682;SDS011;2864;49.220;8.654;2022-08-19T11:23:59;6.45;;;5.80;;
5682;SDS011;2864;49.220;8.654;2022-08-19T11:26:28;5.13;;;4.63;;
5682;SDS011;2864;49.220;8.654;2022-08-19T11:28:56;6.65;;;4.90;;
5682;SDS011;2864;49.220;8.654;2022-08-19T11:31:24;8.95;;;5.13;;
5682;SDS011;2864;49.220;8.654;2022-08-19T11:33:51;8.73;;;6.10;;
5682;SDS011;2864;49.220;8.654;2022-08-19T11:36:19;7.53;;;6.55;;
5682;SDS011;2864;49.220;8.654;2022-08-19T11:38:45;6.75;;;5.95;;
5682;SDS011;2864;49.220;8.654;2022-08-19T11:41:13;9.68;;;6.65;;
5682;SDS011;2864;49.220;8.654;2022-08-19T11:43:40;8.95;;;6.72;;
5682;SDS011;2864;49.220;8.654;2022-08-19T11:46:06;7.90;;;5.65;;
5682;SDS011;2864;49.220;8.654;2022-08-19T11:48:35;8.23;;;5.90;;
5682;SDS011;2864;49.220;8.654;2022-08-19T11:51:03;7.85;;;6.35;;
5682;SDS011;2864;49.220;8.654;2022-08-19T11:53:34;7.68;;;5.63;;
5682;SDS011;2864;49.220;8.654;2022-08-19T11:56:01;8.43;;;6.40;;
5682;SDS011;2864;49.220;8.654;2022-08-19T11:58:28;7.03;;;6.43;;
5682;SDS011;2864;49.220;8.654;2022-08-19T12:00:56;7.07;;;6.38;;
5682;SDS011;2864;49.220;8.654;2022-08-19T12:03:22;6.63;;;6.07;;
5682;SDS011;2864;49.220;8.654;2022-08-19T12:05:48;6.75;;;5.78;;
5682;SDS011;2864;49.220;8.654;2022-08-19T12:08:15;7.47;;;6.45;;
5682;SDS011;2864;49.220;8.654;2022-08-19T12:10:41;6.75;;;5.88;;
5682;SDS011;2864;49.220;8.654;2022-08-19T12:13:11;7.65;;;5.97;;
5682;SDS011;2864;49.220;8.654;2022-08-19T12:15:45;7.97;;;5.63;;
5682;SDS011;2864;49.220;8.654;2022-08-19T12:18:12;9.20;;;6.18;;
5682;SDS011;2864;49.220;8.654;2022-08-19T12:20:39;6.80;;;5.93;;
5682;SDS011;2864;49.220;8.654;2022-08-19T12:23:06;7.85;;;5.70;;
5682;SDS011;2864;49.220;8.654;2022-08-19T12:25:34;5.90;;;5.40;;
5682;SDS011;2864;49.220;8.654;2022-08-19T12:28:00;7.95;;;6.25;;
5682;SDS011;2864;49.220;8.654;2022-08-19T12:30:26;6.15;;;5.55;;
5682;SDS011;2864;49.220;8.654;2022-08-19T12:32:51;6.20;;;5.60;;
5682;SDS011;2864;49.220;8.654;2022-08-19T12:35:17;7.78;;;5.70;;
5682;SDS011;2864;49.220;8.654;2022-08-19T12:37:45;6.65;;;5.22;;
5682;SDS011;2864;49.220;8.654;2022-08-19T12:40:12;5.25;;;4.80;;
5682;SDS011;2864;49.220;8.654;2022-08-19T12:42:39;7.32;;;5.50;;
5682;SDS011;2864;49.220;8.654;2022-08-19T12:45:08;5.07;;;4.68;;
5682;SDS011;2864;49.220;8.654;2022-08-19T12:47:35;4.88;;;3.90;;
5682;SDS011;2864;49.220;8.654;2022-08-19T12:50:01;5.65;;;4.80;;
5682;SDS011;2864;49.220;8.654;2022-08-19T12:52:27;4.90;;;4.40;;
5682;SDS011;2864;49.220;8.654;2022-08-19T12:54:54;5.47;;;4.13;;
5682;SDS011;2864;49.220;8.654;2022-08-19T12:57:22;5.55;;;4.30;;
5682;SDS011;2864;49.220;8.654;2022-08-19T12:59:51;4.70;;;4.30;;
5682;SDS011;2864;49.220;8.654;2022-08-19T13:02:18;7.45;;;4.78;;
5682;SDS011;2864;49.220;8.654;2022-08-19T13:04:44;5.47;;;4.93;;
5682;SDS011;2864;49.220;8.654;2022-08-19T13:07:10;5.65;;;4.90;;
5682;SDS011;2864;49.220;8.654;2022-08-19T13:09:36;4.80;;;4.25;;
5682;SDS011;2864;49.220;8.654;2022-08-19T13:12:02;5.40;;;4.10;;
5682;SDS011;2864;49.220;8.654;2022-08-19T13:14:32;4.63;;;4.20;;
5682;SDS011;2864;49.220;8.654;2022-08-19T13:16:58;4.53;;;4.13;;
5682;SDS011;2864;49.220;8.654;2022-08-19T13:19:24;4.20;;;3.88;;
5682;SDS011;2864;49.220;8.654;2022-08-19T13:21:50;9.52;;;4.22;;
5682;SDS011;2864;49.220;8.654;2022-08-19T13:24:16;4.38;;;3.97;;
5682;SDS011;2864;49.220;8.654;2022-08-19T13:26:42;4.68;;;3.53;;
5682;SDS011;2864;49.220;8.654;2022-08-19T13:29:07;10.05;;;4.50;;
5682;SDS011;2864;49.220;8.654;2022-08-19T13:31:52;6.85;;;4.20;;
5682;SDS011;2864;49.220;8.654;2022-08-19T13:34:36;4.70;;;4.03;;
5682;SDS011;2864;49.220;8.654;2022-08-19T13:37:02;4.40;;;4.00;;
5682;SDS011;2864;49.220;8.654;2022-08-19T13:39:29;5.40;;;3.97;;
5682;SDS011;2864;49.220;8.654;2022-08-19T13:41:57;4.20;;;3.70;;
5682;SDS011;2864;49.220;8.654;2022-08-19T13:44:25;4.20;;;3.65;;
5682;SDS011;2864;49.220;8.654;2022-08-19T13:46:54;4.53;;;3.90;;
5682;SDS011;2864;49.220;8.654;2022-08-19T13:49:25;7.30;;;3.70;;
5682;SDS011;2864;49.220;8.654;2022-08-19T13:51:52;4.57;;;3.63;;
5682;SDS011;2864;49.220;8.654;2022-08-19T13:54:18;5.68;;;3.60;;
5682;SDS011;2864;49.220;8.654;2022-08-19T13:56:44;4.10;;;3.80;;
5682;SDS011;2864;49.220;8.654;2022-08-19T13:59:11;4.68;;;3.70;;
5682;SDS011;2864;49.220;8.654;2022-08-19T14:01:37;4.90;;;3.22;;
5682;SDS011;2864;49.220;8.654;2022-08-19T14:04:03;4.78;;;3.40;;
5682;SDS011;2864;49.220;8.654;2022-08-19T14:06:30;4.30;;;3.70;;
5682;SDS011;2864;49.220;8.654;2022-08-19T14:08:56;8.20;;;4.15;;
5682;SDS011;2864;49.220;8.654;2022-08-19T14:11:22;5.38;;;3.78;;
5682;SDS011;2864;49.220;8.654;2022-08-19T14:13:48;5.15;;;4.03;;
5682;SDS011;2864;49.220;8.654;2022-08-19T14:16:14;5.35;;;3.33;;
5682;SDS011;2864;49.220;8.654;2022-08-19T14:18:40;4.95;;;3.70;;
5682;SDS011;2864;49.220;8.654;2022-08-19T14:21:06;4.00;;;3.70;;
5682;SDS011;2864;49.220;8.654;2022-08-19T14:23:33;5.60;;;3.75;;
5682;SDS011;2864;49.220;8.654;2022-08-19T14:26:06;3.95;;;3.63;;
5682;SDS011;2864;49.220;8.654;2022-08-19T14:28:37;5.25;;;3.47;;
5682;SDS011;2864;49.220;8.654;2022-08-19T14:31:06;4.18;;;3.28;;
5682;SDS011;2864;49.220;8.654;2022-08-19T14:33:35;4.40;;;3.65;;
5682;SDS011;2864;49.220;8.654;2022-08-19T14:38:32;5.10;;;3.45;;
5682;SDS011;2864;49.220;8.654;2022-08-19T14:43:55;4.00;;;3.55;;
5682;SDS011;2864;49.220;8.654;2022-08-19T14:46:22;4.85;;;3.25;;
5682;SDS011;2864;49.220;8.654;2022-08-19T14:48:50;5.57;;;3.50;;
5682;SDS011;2864;49.220;8.654;2022-08-19T14:51:16;10.10;;;4.20;;
5682;SDS011;2864;49.220;8.654;2022-08-19T14:53:42;5.00;;;3.60;;
5682;SDS011;2864;49.220;8.654;2022-08-19T14:56:09;6.75;;;3.40;;
5682;SDS011;2864;49.220;8.654;2022-08-19T14:58:49;3.88;;;3.45;;
5682;SDS011;2864;49.220;8.654;2022-08-19T15:01:18;3.83;;;3.50;;
5682;SDS011;2864;49.220;8.654;2022-08-19T15:03:47;5.95;;;3.42;;
5682;SDS011;2864;49.220;8.654;2022-08-19T15:06:16;5.03;;;3.20;;
5682;SDS011;2864;49.220;8.654;2022-08-19T15:08:42;4.28;;;3.60;;
5682;SDS011;2864;49.220;8.654;2022-08-19T15:11:09;4.15;;;3.75;;
5682;SDS011;2864;49.220;8.654;2022-08-19T15:13:37;4.10;;;3.63;;
5682;SDS011;2864;49.220;8.654;2022-08-19T15:16:04;7.55;;;4.00;;
5682;SDS011;2864;49.220;8.654;2022-08-19T15:18:29;4.32;;;3.92;;